sensor_id;sensor_type;location;lat;lon;timestamp;pressure;altitude;pressure_sealevel;temperature;humidity
35489;BME280;21602;55.670;37.578;2022-10-16T00:01:14;100387.56;;;7.15;64.53
35489;BME280;21602;55.670;37.578;2022-10-16T00:03:41;100386.94;;;7.13;64.44
35489;BME280;21602;55.670;37.578;2022-10-16T00:06:09;100394.91;;;7.13;64.88
35489;BME280;21602;55.670;37.578;2022-10-16T00:08:36;100394.53;;;7.16;64.70
35489;BME280;21602;55.670;37.578;2022-10-16T00:11:17;100393.53;;;7.17;64.77
35489;BME280;21602;55.670;37.578;2022-10-16T00:13:44;100388.94;;;7.11;64.85
35489;BME280;21602;55.670;37.578;2022-10-16T00:16:12;100397.66;;;7.05;64.77
35489;BME280;21602;55.670;37.578;2022-10-16T00:18:38;100395.00;;;7.05;64.89
35489;BME280;21602;55.670;37.578;2022-10-16T00:21:15;100404.44;;;7.08;65.04
35489;BME280;21602;55.670;37.578;2022-10-16T00:24:03;100407.09;;;7.08;65.05
35489;BME280;21602;55.670;37.578;2022-10-16T00:26:30;100397.09;;;7.10;65.19
35489;BME280;21602;55.670;37.578;2022-10-16T00:28:57;100400.59;;;7.10;64.99
35489;BME280;21602;55.670;37.578;2022-10-16T00:31:23;100400.94;;;7.07;65.02
35489;BME280;21602;55.670;37.578;2022-10-16T00:33:50;100404.44;;;7.08;64.98
35489;BME280;21602;55.670;37.578;2022-10-16T00:36:19;100398.94;;;7.09;65.04
35489;BME280;21602;55.670;37.578;2022-10-16T00:38:45;100410.59;;;7.08;65.16
35489;BME280;21602;55.670;37.578;2022-10-16T00:41:14;100408.28;;;7.05;65.20
35489;BME280;21602;55.670;37.578;2022-10-16T00:43:45;100401.97;;;7.06;65.06
35489;BME280;21602;55.670;37.578;2022-10-16T00:46:19;100402.97;;;7.05;65.00
35489;BME280;21602;55.670;37.578;2022-10-16T00:48:50;100404.34;;;7.01;65.09
35489;BME280;21602;55.670;37.578;2022-10-16T00:51:23;100403.88;;;6.98;65.29
35489;BME280;21602;55.670;37.578;2022-10-16T00:53:50;100410.41;;;6.95;65.35
35489;BME280;21602;55.670;37.578;2022-10-16T00:56:17;100406.72;;;6.96;65.38
35489;BME280;21602;55.670;37.578;2022-10-16T00:58:43;100408.75;;;6.94;65.33
35489;BME280;21602;55.670;37.578;2022-10-16T01:01:09;100408.28;;;6.90;65.48
35489;BME280;21602;55.670;37.578;2022-10-16T01:03:36;100416.34;;;6.82;65.54
35489;BME280;21602;55.670;37.578;2022-10-16T01:11:45;100416.25;;;6.76;65.72
35489;BME280;21602;55.670;37.578;2022-10-16T01:14:22;100419.19;;;6.81;66.07
35489;BME280;21602;55.670;37.578;2022-10-16T01:17:04;100415.72;;;6.80;65.84
35489;BME280;21602;55.670;37.578;2022-10-16T01:19:50;100417.28;;;6.75;65.85
35489;BME280;21602;55.670;37.578;2022-10-16T01:22:18;100425.22;;;6.75;65.89
35489;BME280;21602;55.670;37.578;2022-10-16T01:24:48;100418.81;;;6.69;66.05
35489;BME280;21602;55.670;37.578;2022-10-16T01:27:27;100417.81;;;6.70;65.96
35489;BME280;21602;55.670;37.578;2022-10-16T01:32:40;100428.44;;;6.70;66.00
35489;BME280;21602;55.670;37.578;2022-10-16T01:37:44;100428.59;;;6.68;66.09
35489;BME280;21602;55.670;37.578;2022-10-16T01:40:14;100424.31;;;6.67;66.05
35489;BME280;21602;55.670;37.578;2022-10-16T01:42:48;100431.09;;;6.70;66.12
35489;BME280;21602;55.670;37.578;2022-10-16T01:45:17;100434.91;;;6.67;66.07
35489;BME280;21602;55.670;37.578;2022-10-16T01:47:48;100426.75;;;6.69;66.09
35489;BME280;21602;55.670;37.578;2022-10-16T01:50:16;100429.59;;;6.67;66.07
35489;BME280;21602;55.670;37.578;2022-10-16T01:52:45;100431.16;;;6.62;66.36
35489;BME280;21602;55.670;37.578;2022-10-16T01:55:15;100435.25;;;6.64;66.28
35489;BME280;21602;55.670;37.578;2022-10-16T01:57:45;100438.56;;;6.66;66.16
35489;BME280;21602;55.670;37.578;2022-10-16T02:00:13;100441.31;;;6.58;66.68
35489;BME280;21602;55.670;37.578;2022-10-16T02:02:41;100431.97;;;6.62;66.56
35489;BME280;21602;55.670;37.578;2022-10-16T02:07:37;100442.94;;;6.59;66.60
35489;BME280;21602;55.670;37.578;2022-10-16T02:10:03;100446.59;;;6.58;66.75
35489;BME280;21602;55.670;37.578;2022-10-16T02:12:33;100435.84;;;6.60;66.54
35489;BME280;21602;55.670;37.578;2022-10-16T02:15:00;100433.53;;;6.57;66.94
35489;BME280;21602;55.670;37.578;2022-10-16T02:17:27;100436.00;;;6.58;66.85
35489;BME280;21602;55.670;37.578;2022-10-16T02:19:54;100432.88;;;6.55;66.76
35489;BME280;21602;55.670;37.578;2022-10-16T02:22:28;100434.06;;;6.52;66.85
35489;BME280;21602;55.670;37.578;2022-10-16T02:25:25;100439.19;;;6.54;67.11
35489;BME280;21602;55.670;37.578;2022-10-16T02:28:12;100437.56;;;6.53;67.12
35489;BME280;21602;55.670;37.578;2022-10-16T02:30:50;100439.19;;;6.54;66.96
35489;BME280;21602;55.670;37.578;2022-10-16T02:33:19;100439.56;;;6.51;67.09
35489;BME280;21602;55.670;37.578;2022-10-16T02:35:47;100442.56;;;6.48;67.11
35489;BME280;21602;55.670;37.578;2022-10-16T02:38:15;100444.41;;;6.47;67.26
35489;BME280;21602;55.670;37.578;2022-10-16T02:40:41;100444.75;;;6.44;67.62
35489;BME280;21602;55.670;37.578;2022-10-16T02:43:08;100448.06;;;6.46;67.49
35489;BME280;21602;55.670;37.578;2022-10-16T02:45:35;100439.09;;;6.47;67.65
35489;BME280;21602;55.670;37.578;2022-10-16T02:48:00;100442.91;;;6.45;67.69
35489;BME280;21602;55.670;37.578;2022-10-16T02:50:26;100450.44;;;6.41;67.89
35489;BME280;21602;55.670;37.578;2022-10-16T02:52:52;100447.13;;;6.39;68.04
35489;BME280;21602;55.670;37.578;2022-10-16T02:55:18;100449.13;;;6.37;68.18
35489;BME280;21602;55.670;37.578;2022-10-16T02:57:43;100450.50;;;6.33;68.56
35489;BME280;21602;55.670;37.578;2022-10-16T03:00:12;100451.22;;;6.27;68.74
35489;BME280;21602;55.670;37.578;2022-10-16T03:02:39;100451.56;;;6.24;68.99
35489;BME280;21602;55.670;37.578;2022-10-16T03:05:05;100452.72;;;6.21;69.30
35489;BME280;21602;55.670;37.578;2022-10-16T03:07:31;100455.56;;;6.20;69.04
35489;BME280;21602;55.670;37.578;2022-10-16T03:09:56;100458.56;;;6.16;69.20
35489;BME280;21602;55.670;37.578;2022-10-16T03:12:28;100461.41;;;6.15;69.33
35489;BME280;21602;55.670;37.578;2022-10-16T03:14:55;100460.09;;;6.11;69.47
35489;BME280;21602;55.670;37.578;2022-10-16T03:17:22;100463.59;;;6.11;69.72
35489;BME280;21602;55.670;37.578;2022-10-16T03:19:48;100462.59;;;6.12;69.72
35489;BME280;21602;55.670;37.578;2022-10-16T03:22:14;100465.25;;;6.12;69.58
35489;BME280;21602;55.670;37.578;2022-10-16T03:24:39;100457.66;;;6.09;69.56
35489;BME280;21602;55.670;37.578;2022-10-16T03:27:05;100467.59;;;6.07;69.64
35489;BME280;21602;55.670;37.578;2022-10-16T03:29:31;100467.78;;;6.06;69.57
35489;BME280;21602;55.670;37.578;2022-10-16T03:31:58;100476.72;;;6.05;69.88
35489;BME280;21602;55.670;37.578;2022-10-16T03:34:24;100465.31;;;6.04;69.84
35489;BME280;21602;55.670;37.578;2022-10-16T03:36:50;100472.25;;;6.05;69.92
35489;BME280;21602;55.670;37.578;2022-10-16T03:39:15;100472.25;;;6.05;69.91
35489;BME280;21602;55.670;37.578;2022-10-16T03:41:41;100472.44;;;6.04;69.90
35489;BME280;21602;55.670;37.578;2022-10-16T03:44:07;100475.44;;;6.01;69.86
35489;BME280;21602;55.670;37.578;2022-10-16T03:46:32;100477.59;;;5.97;70.06
35489;BME280;21602;55.670;37.578;2022-10-16T03:48:58;100471.31;;;5.98;70.28
35489;BME280;21602;55.670;37.578;2022-10-16T03:51:24;100472.97;;;5.99;70.41
35489;BME280;21602;55.670;37.578;2022-10-16T03:53:50;100473.97;;;5.98;70.08
35489;BME280;21602;55.670;37.578;2022-10-16T03:56:16;100476.63;;;5.98;70.02
35489;BME280;21602;55.670;37.578;2022-10-16T03:58:41;100476.78;;;5.97;70.37
35489;BME280;21602;55.670;37.578;2022-10-16T04:01:07;100481.06;;;5.98;70.40
35489;BME280;21602;55.670;37.578;2022-10-16T04:03:33;100482.91;;;5.97;70.35
35489;BME280;21602;55.670;37.578;2022-10-16T04:05:58;100478.59;;;5.96;70.41
35489;BME280;21602;55.670;37.578;2022-10-16T04:08:24;100480.25;;;5.97;70.37
35489;BME280;21602;55.670;37.578;2022-10-16T04:10:50;100479.28;;;5.98;70.59
35489;BME280;21602;55.670;37.578;2022-10-16T04:13:16;100480.91;;;5.99;71.03
35489;BME280;21602;55.670;37.578;2022-10-16T04:15:42;100477.25;;;6.00;70.69
35489;BME280;21602;55.670;37.578;2022-10-16T04:18:09;100477.91;;;6.02;70.63
35489;BME280;21602;55.670;37.578;2022-10-16T04:20:35;100475.25;;;6.02;70.51
35489;BME280;21602;55.670;37.578;2022-10-16T04:23:01;100476.25;;;6.01;70.60
35489;BME280;21602;55.670;37.578;2022-10-16T04:25:27;100474.59;;;6.00;70.56
35489;BME280;21602;55.670;37.578;2022-10-16T04:27:53;100473.97;;;5.98;70.47
35489;BME280;21602;55.670;37.578;2022-10-16T04:30:20;100483.91;;;5.96;70.42
35489;BME280;21602;55.670;37.578;2022-10-16T04:32:50;100486.56;;;5.96;70.45
35489;BME280;21602;55.670;37.578;2022-10-16T04:35:17;100485.09;;;5.94;70.52
35489;BME280;21602;55.670;37.578;2022-10-16T04:37:43;100489.41;;;5.95;70.64
35489;BME280;21602;55.670;37.578;2022-10-16T04:40:09;100486.75;;;5.95;70.96
35489;BME280;21602;55.670;37.578;2022-10-16T04:42:35;100494.31;;;5.98;70.48
35489;BME280;21602;55.670;37.578;2022-10-16T04:45:00;100500.09;;;6.01;70.74
35489;BME280;21602;55.670;37.578;2022-10-16T04:47:28;100494.94;;;6.08;70.59
35489;BME280;21602;55.670;37.578;2022-10-16T04:49:54;100490.75;;;6.13;70.42
35489;BME280;21602;55.670;37.578;2022-10-16T04:52:20;100495.34;;;6.20;70.34
35489;BME280;21602;55.670;37.578;2022-10-16T04:54:46;100494.63;;;6.26;70.44
35489;BME280;21602;55.670;37.578;2022-10-16T04:57:12;100499.06;;;6.33;70.33
35489;BME280;21602;55.670;37.578;2022-10-16T04:59:38;100498.72;;;6.36;70.01
35489;BME280;21602;55.670;37.578;2022-10-16T05:02:04;100500.16;;;6.39;69.93
35489;BME280;21602;55.670;37.578;2022-10-16T05:04:29;100506.97;;;6.41;69.89
35489;BME280;21602;55.670;37.578;2022-10-16T05:06:55;100503.94;;;6.45;69.95
35489;BME280;21602;55.670;37.578;2022-10-16T05:09:21;100498.28;;;6.48;69.96
35489;BME280;21602;55.670;37.578;2022-10-16T05:11:47;100499.72;;;6.50;69.74
35489;BME280;21602;55.670;37.578;2022-10-16T05:14:12;100495.09;;;6.52;69.65
35489;BME280;21602;55.670;37.578;2022-10-16T05:16:38;100500.06;;;6.55;69.84
35489;BME280;21602;55.670;37.578;2022-10-16T05:19:04;100500.50;;;6.59;69.35
35489;BME280;21602;55.670;37.578;2022-10-16T05:21:30;100504.91;;;6.66;69.47
35489;BME280;21602;55.670;37.578;2022-10-16T05:23:55;100502.75;;;6.70;69.02
35489;BME280;21602;55.670;37.578;2022-10-16T05:26:21;100500.63;;;6.65;69.06
35489;BME280;21602;55.670;37.578;2022-10-16T05:28:47;100505.94;;;6.65;68.86
35489;BME280;21602;55.670;37.578;2022-10-16T05:31:13;100515.72;;;6.65;68.87
35489;BME280;21602;55.670;37.578;2022-10-16T05:33:38;100508.88;;;6.71;68.83
35489;BME280;21602;55.670;37.578;2022-10-16T05:36:08;100515.63;;;6.73;68.43
35489;BME280;21602;55.670;37.578;2022-10-16T05:38:35;100511.41;;;6.79;68.50
35489;BME280;21602;55.670;37.578;2022-10-16T05:41:01;100515.22;;;6.84;68.29
35489;BME280;21602;55.670;37.578;2022-10-16T05:43:28;100511.00;;;6.90;68.04
35489;BME280;21602;55.670;37.578;2022-10-16T05:48:20;100509.09;;;6.99;67.84
35489;BME280;21602;55.670;37.578;2022-10-16T05:50:46;100515.50;;;7.04;67.61
35489;BME280;21602;55.670;37.578;2022-10-16T05:53:12;100524.75;;;7.08;67.57
35489;BME280;21602;55.670;37.578;2022-10-16T05:55:37;100522.25;;;7.07;67.09
35489;BME280;21602;55.670;37.578;2022-10-16T05:58:03;100525.19;;;7.12;66.97
35489;BME280;21602;55.670;37.578;2022-10-16T06:00:29;100529.97;;;7.16;66.83
35489;BME280;21602;55.670;37.578;2022-10-16T06:02:55;100529.59;;;7.19;66.81
35489;BME280;21602;55.670;37.578;2022-10-16T06:05:20;100531.44;;;7.19;66.70
35489;BME280;21602;55.670;37.578;2022-10-16T06:07:46;100528.44;;;7.22;66.58
35489;BME280;21602;55.670;37.578;2022-10-16T06:10:11;100532.19;;;7.28;66.42
35489;BME280;21602;55.670;37.578;2022-10-16T06:12:37;100535.47;;;7.30;66.24
35489;BME280;21602;55.670;37.578;2022-10-16T06:15:03;100530.63;;;7.33;66.09
35489;BME280;21602;55.670;37.578;2022-10-16T06:17:29;100532.72;;;7.38;66.12
35489;BME280;21602;55.670;37.578;2022-10-16T06:19:55;100539.78;;;7.46;66.19
35489;BME280;21602;55.670;37.578;2022-10-16T06:22:21;100531.53;;;7.55;66.51
35489;BME280;21602;55.670;37.578;2022-10-16T06:24:47;100532.69;;;7.67;66.34
35489;BME280;21602;55.670;37.578;2022-10-16T06:27:13;100531.38;;;7.78;66.10
35489;BME280;21602;55.670;37.578;2022-10-16T06:29:38;100534.16;;;7.85;65.48
35489;BME280;21602;55.670;37.578;2022-10-16T06:32:04;100542.84;;;7.93;65.22
35489;BME280;21602;55.670;37.578;2022-10-16T06:34:30;100539.78;;;7.96;64.89
35489;BME280;21602;55.670;37.578;2022-10-16T06:36:55;100538.59;;;7.99;64.85
35489;BME280;21602;55.670;37.578;2022-10-16T06:39:21;100547.03;;;8.03;65.14
35489;BME280;21602;55.670;37.578;2022-10-16T06:41:47;100541.16;;;8.07;64.74
35489;BME280;21602;55.670;37.578;2022-10-16T06:44:15;100542.66;;;8.16;64.87
35489;BME280;21602;55.670;37.578;2022-10-16T06:46:41;100544.19;;;8.26;65.71
35489;BME280;21602;55.670;37.578;2022-10-16T06:49:07;100542.91;;;8.36;65.35
35489;BME280;21602;55.670;37.578;2022-10-16T06:51:33;100541.13;;;8.43;64.44
35489;BME280;21602;55.670;37.578;2022-10-16T06:54:00;100541.38;;;8.49;64.70
35489;BME280;21602;55.670;37.578;2022-10-16T06:56:30;100542.44;;;8.54;64.34
35489;BME280;21602;55.670;37.578;2022-10-16T06:58:56;100543.09;;;8.56;64.14
35489;BME280;21602;55.670;37.578;2022-10-16T07:01:23;100545.41;;;8.59;64.10
35489;BME280;21602;55.670;37.578;2022-10-16T07:03:49;100546.25;;;8.66;64.35
35489;BME280;21602;55.670;37.578;2022-10-16T07:06:18;100556.34;;;8.71;64.19
35489;BME280;21602;55.670;37.578;2022-10-16T07:08:46;100550.06;;;8.79;63.26
35489;BME280;21602;55.670;37.578;2022-10-16T07:11:14;100546.38;;;8.80;62.93
35489;BME280;21602;55.670;37.578;2022-10-16T07:13:42;100554.38;;;8.80;63.08
35489;BME280;21602;55.670;37.578;2022-10-16T07:16:13;100552.72;;;8.79;62.53
35489;BME280;21602;55.670;37.578;2022-10-16T07:18:40;100551.28;;;8.83;63.05
35489;BME280;21602;55.670;37.578;2022-10-16T07:21:18;100551.16;;;8.91;62.65
35489;BME280;21602;55.670;37.578;2022-10-16T07:23:50;100557.38;;;8.98;62.28
35489;BME280;21602;55.670;37.578;2022-10-16T07:26:16;100557.03;;;9.08;62.31
35489;BME280;21602;55.670;37.578;2022-10-16T07:28:42;100557.13;;;9.21;62.78
35489;BME280;21602;55.670;37.578;2022-10-16T07:31:11;100556.38;;;9.34;62.35
35489;BME280;21602;55.670;37.578;2022-10-16T07:33:38;100561.47;;;9.29;61.00
35489;BME280;21602;55.670;37.578;2022-10-16T07:36:05;100551.47;;;9.31;62.21
35489;BME280;21602;55.670;37.578;2022-10-16T07:38:31;100559.28;;;9.39;61.57
35489;BME280;21602;55.670;37.578;2022-10-16T07:40:58;100558.09;;;9.48;62.30
35489;BME280;21602;55.670;37.578;2022-10-16T07:43:25;100557.31;;;9.54;60.75
35489;BME280;21602;55.670;37.578;2022-10-16T07:45:52;100555.50;;;9.61;60.75
35489;BME280;21602;55.670;37.578;2022-10-16T07:48:18;100554.91;;;9.66;60.97
35489;BME280;21602;55.670;37.578;2022-10-16T07:50:44;100556.13;;;9.63;60.32
35489;BME280;21602;55.670;37.578;2022-10-16T07:53:11;100557.59;;;9.66;60.00
35489;BME280;21602;55.670;37.578;2022-10-16T07:55:37;100561.50;;;9.70;60.26
35489;BME280;21602;55.670;37.578;2022-10-16T07:58:03;100555.38;;;9.76;60.03
35489;BME280;21602;55.670;37.578;2022-10-16T08:00:28;100559.09;;;9.82;59.96
35489;BME280;21602;55.670;37.578;2022-10-16T08:02:54;100564.63;;;9.87;59.88
35489;BME280;21602;55.670;37.578;2022-10-16T08:05:22;100558.72;;;9.91;59.67
35489;BME280;21602;55.670;37.578;2022-10-16T08:07:49;100567.56;;;9.98;60.19
35489;BME280;21602;55.670;37.578;2022-10-16T08:10:19;100569.44;;;10.05;59.55
35489;BME280;21602;55.670;37.578;2022-10-16T08:12:45;100555.50;;;10.09;59.43
35489;BME280;21602;55.670;37.578;2022-10-16T08:15:11;100563.72;;;10.14;59.15
35489;BME280;21602;55.670;37.578;2022-10-16T08:17:37;100558.59;;;10.13;59.69
35489;BME280;21602;55.670;37.578;2022-10-16T08:20:04;100558.81;;;10.11;58.95
35489;BME280;21602;55.670;37.578;2022-10-16T08:22:30;100550.97;;;10.10;58.71
35489;BME280;21602;55.670;37.578;2022-10-16T08:24:56;100558.00;;;10.17;58.84
35489;BME280;21602;55.670;37.578;2022-10-16T08:27:22;100558.59;;;10.19;58.62
35489;BME280;21602;55.670;37.578;2022-10-16T08:29:50;100554.50;;;10.23;58.76
35489;BME280;21602;55.670;37.578;2022-10-16T08:32:16;100559.06;;;10.30;58.44
35489;BME280;21602;55.670;37.578;2022-10-16T08:34:42;100554.34;;;10.32;58.55
35489;BME280;21602;55.670;37.578;2022-10-16T08:37:08;100551.09;;;10.43;58.59
35489;BME280;21602;55.670;37.578;2022-10-16T08:39:36;100558.09;;;10.50;57.87
35489;BME280;21602;55.670;37.578;2022-10-16T08:50:31;100550.09;;;10.84;57.32
35489;BME280;21602;55.670;37.578;2022-10-16T08:52:57;100543.09;;;10.89;57.01
35489;BME280;21602;55.670;37.578;2022-10-16T08:55:43;100549.88;;;10.98;56.58
35489;BME280;21602;55.670;37.578;2022-10-16T08:58:31;100543.72;;;11.11;56.59
35489;BME280;21602;55.670;37.578;2022-10-16T09:01:00;100546.78;;;11.21;56.52
35489;BME280;21602;55.670;37.578;2022-10-16T09:16:44;100542.88;;;11.04;55.56
35489;BME280;21602;55.670;37.578;2022-10-16T09:19:24;100545.34;;;11.12;55.62
35489;BME280;21602;55.670;37.578;2022-10-16T09:21:54;100536.31;;;11.13;54.96
35489;BME280;21602;55.670;37.578;2022-10-16T09:24:24;100537.31;;;11.25;55.35
35489;BME280;21602;55.670;37.578;2022-10-16T09:26:51;100540.56;;;11.34;54.97
35489;BME280;21602;55.670;37.578;2022-10-16T09:29:19;100534.22;;;11.28;53.93
35489;BME280;21602;55.670;37.578;2022-10-16T09:31:46;100542.47;;;11.20;54.02
35489;BME280;21602;55.670;37.578;2022-10-16T09:34:25;100545.97;;;11.08;53.46
35489;BME280;21602;55.670;37.578;2022-10-16T09:36:53;100548.00;;;11.19;53.63
35489;BME280;21602;55.670;37.578;2022-10-16T09:39:19;100543.28;;;11.14;53.62
35489;BME280;21602;55.670;37.578;2022-10-16T09:41:45;100538.16;;;11.13;53.81
35489;BME280;21602;55.670;37.578;2022-10-16T09:46:46;100528.44;;;11.25;53.44
35489;BME280;21602;55.670;37.578;2022-10-16T09:49:24;100541.16;;;11.43;53.38
35489;BME280;21602;55.670;37.578;2022-10-16T09:52:13;100535.56;;;11.58;53.01
35489;BME280;21602;55.670;37.578;2022-10-16T09:54:52;100536.16;;;11.66;52.54
35489;BME280;21602;55.670;37.578;2022-10-16T09:57:19;100530.81;;;11.66;52.53
35489;BME280;21602;55.670;37.578;2022-10-16T09:59:54;100532.28;;;11.56;52.07
35489;BME280;21602;55.670;37.578;2022-10-16T10:02:47;100529.84;;;11.54;51.88
35489;BME280;21602;55.670;37.578;2022-10-16T10:05:27;100525.09;;;11.56;52.78
35489;BME280;21602;55.670;37.578;2022-10-16T10:07:58;100520.94;;;11.67;52.77
35489;BME280;21602;55.670;37.578;2022-10-16T10:10:30;100523.78;;;11.78;52.30
35489;BME280;21602;55.670;37.578;2022-10-16T10:12:56;100519.00;;;11.94;52.86
35489;BME280;21602;55.670;37.578;2022-10-16T10:15:23;100520.56;;;12.08;52.38
35489;BME280;21602;55.670;37.578;2022-10-16T10:17:57;100511.25;;;12.17;51.77
35489;BME280;21602;55.670;37.578;2022-10-16T10:20:34;100518.41;;;12.23;51.17
35489;BME280;21602;55.670;37.578;2022-10-16T10:23:22;100519.03;;;12.25;50.97
35489;BME280;21602;55.670;37.578;2022-10-16T10:26:10;100515.72;;;12.23;51.06
35489;BME280;21602;55.670;37.578;2022-10-16T10:28:55;100502.16;;;12.18;50.84
35489;BME280;21602;55.670;37.578;2022-10-16T10:31:26;100512.22;;;12.23;51.20
35489;BME280;21602;55.670;37.578;2022-10-16T10:36:50;100511.66;;;12.14;50.68
35489;BME280;21602;55.670;37.578;2022-10-16T10:39:26;100513.81;;;11.99;50.61
35489;BME280;21602;55.670;37.578;2022-10-16T10:50:47;100508.69;;;12.29;50.86
35489;BME280;21602;55.670;37.578;2022-10-16T11:01:52;100504.94;;;12.37;50.41
35489;BME280;21602;55.670;37.578;2022-10-16T11:04:40;100501.09;;;12.26;50.35
35489;BME280;21602;55.670;37.578;2022-10-16T11:07:18;100504.09;;;12.11;50.56
35489;BME280;21602;55.670;37.578;2022-10-16T11:09:53;100499.31;;;12.13;50.85
35489;BME280;21602;55.670;37.578;2022-10-16T11:12:27;100504.25;;;12.16;50.48
35489;BME280;21602;55.670;37.578;2022-10-16T11:15:14;100492.50;;;12.17;50.64
35489;BME280;21602;55.670;37.578;2022-10-16T11:17:46;100500.59;;;12.11;50.91
35489;BME280;21602;55.670;37.578;2022-10-16T11:20:19;100497.25;;;12.15;50.87
35489;BME280;21602;55.670;37.578;2022-10-16T11:22:51;100497.59;;;12.25;51.07
35489;BME280;21602;55.670;37.578;2022-10-16T11:25:24;100484.34;;;12.37;51.39
35489;BME280;21602;55.670;37.578;2022-10-16T11:30:59;100498.66;;;12.49;50.68
35489;BME280;21602;55.670;37.578;2022-10-16T11:33:44;100483.63;;;12.48;51.36
35489;BME280;21602;55.670;37.578;2022-10-16T11:36:39;100492.03;;;12.52;50.87
35489;BME280;21602;55.670;37.578;2022-10-16T11:42:10;100478.81;;;12.57;51.30
35489;BME280;21602;55.670;37.578;2022-10-16T11:47:45;100480.97;;;12.73;51.18
35489;BME280;21602;55.670;37.578;2022-10-16T11:50:23;100479.47;;;12.77;50.92
35489;BME280;21602;55.670;37.578;2022-10-16T11:52:55;100479.47;;;12.77;50.52
35489;BME280;21602;55.670;37.578;2022-10-16T11:55:34;100480.72;;;12.75;50.46
35489;BME280;21602;55.670;37.578;2022-10-16T11:58:09;100472.25;;;12.78;50.71
35489;BME280;21602;55.670;37.578;2022-10-16T12:00:53;100478.59;;;12.84;50.61
35489;BME280;21602;55.670;37.578;2022-10-16T12:08:36;100477.00;;;13.01;50.37
35489;BME280;21602;55.670;37.578;2022-10-16T12:13:52;100478.00;;;13.00;49.96
35489;BME280;21602;55.670;37.578;2022-10-16T12:16:29;100476.66;;;12.91;50.56
35489;BME280;21602;55.670;37.578;2022-10-16T12:19:14;100475.59;;;12.73;50.36
35489;BME280;21602;55.670;37.578;2022-10-16T12:21:42;100471.72;;;12.69;50.36
35489;BME280;21602;55.670;37.578;2022-10-16T12:26:46;100464.25;;;12.71;50.19
35489;BME280;21602;55.670;37.578;2022-10-16T12:29:26;100463.84;;;12.74;50.44
35489;BME280;21602;55.670;37.578;2022-10-16T12:31:54;100462.63;;;12.70;50.37
35489;BME280;21602;55.670;37.578;2022-10-16T12:34:23;100453.53;;;12.71;50.23
35489;BME280;21602;55.670;37.578;2022-10-16T12:36:53;100455.63;;;12.69;50.11
35489;BME280;21602;55.670;37.578;2022-10-16T12:39:24;100464.09;;;12.66;50.28
35489;BME280;21602;55.670;37.578;2022-10-16T12:44:45;100464.66;;;12.75;50.42
35489;BME280;21602;55.670;37.578;2022-10-16T12:47:21;100463.41;;;12.77;50.41
35489;BME280;21602;55.670;37.578;2022-10-16T12:49:52;100458.25;;;12.76;50.10
35489;BME280;21602;55.670;37.578;2022-10-16T12:52:36;100455.13;;;12.79;50.19
35489;BME280;21602;55.670;37.578;2022-10-16T12:55:05;100455.13;;;12.79;50.21
35489;BME280;21602;55.670;37.578;2022-10-16T13:03:19;100456.38;;;12.76;50.29
35489;BME280;21602;55.670;37.578;2022-10-16T13:19:53;100455.31;;;12.59;50.32
35489;BME280;21602;55.670;37.578;2022-10-16T13:22:33;100459.03;;;12.58;50.33
35489;BME280;21602;55.670;37.578;2022-10-16T13:28:05;100457.72;;;12.42;50.31
35489;BME280;21602;55.670;37.578;2022-10-16T13:30:43;100455.31;;;12.34;50.53
35489;BME280;21602;55.670;37.578;2022-10-16T13:33:21;100449.34;;;12.32;50.39
35489;BME280;21602;55.670;37.578;2022-10-16T13:35:52;100457.22;;;12.27;50.64
35489;BME280;21602;55.670;37.578;2022-10-16T13:38:21;100458.69;;;12.23;50.69
35489;BME280;21602;55.670;37.578;2022-10-16T13:40:54;100458.91;;;12.21;50.80
35489;BME280;21602;55.670;37.578;2022-10-16T13:46:05;100457.72;;;12.17;51.17
35489;BME280;21602;55.670;37.578;2022-10-16T13:48:33;100464.53;;;12.13;51.05
35489;BME280;21602;55.670;37.578;2022-10-16T13:51:19;100456.91;;;12.10;51.43
35489;BME280;21602;55.670;37.578;2022-10-16T13:53:45;100468.91;;;12.01;51.54
35489;BME280;21602;55.670;37.578;2022-10-16T13:56:14;100461.13;;;11.99;51.50
35489;BME280;21602;55.670;37.578;2022-10-16T13:58:41;100454.78;;;11.94;51.74
35489;BME280;21602;55.670;37.578;2022-10-16T14:01:17;100455.81;;;11.93;51.71
35489;BME280;21602;55.670;37.578;2022-10-16T14:03:44;100453.78;;;11.88;51.83
35489;BME280;21602;55.670;37.578;2022-10-16T14:06:14;100453.97;;;11.87;52.11
35489;BME280;21602;55.670;37.578;2022-10-16T14:08:49;100457.09;;;11.84;52.13
35489;BME280;21602;55.670;37.578;2022-10-16T14:11:21;100450.13;;;11.83;52.17
35489;BME280;21602;55.670;37.578;2022-10-16T14:13:49;100459.34;;;11.80;52.28
35489;BME280;21602;55.670;37.578;2022-10-16T14:16:18;100450.72;;;11.78;52.06
35489;BME280;21602;55.670;37.578;2022-10-16T14:18:59;100457.94;;;11.77;52.19
35489;BME280;21602;55.670;37.578;2022-10-16T14:21:26;100456.28;;;11.76;52.31
35489;BME280;21602;55.670;37.578;2022-10-16T14:23:52;100458.94;;;11.76;52.33
35489;BME280;21602;55.670;37.578;2022-10-16T14:26:21;100457.53;;;11.67;52.39
35489;BME280;21602;55.670;37.578;2022-10-16T14:28:49;100453.06;;;11.61;52.63
35489;BME280;21602;55.670;37.578;2022-10-16T14:31:27;100455.56;;;11.56;52.66
35489;BME280;21602;55.670;37.578;2022-10-16T14:33:54;100456.81;;;11.47;52.88
35489;BME280;21602;55.670;37.578;2022-10-16T14:36:20;100459.09;;;11.43;52.88
35489;BME280;21602;55.670;37.578;2022-10-16T14:41:23;100459.53;;;11.34;53.19
35489;BME280;21602;55.670;37.578;2022-10-16T14:43:54;100464.31;;;11.25;53.57
35489;BME280;21602;55.670;37.578;2022-10-16T14:46:34;100465.97;;;11.19;53.53
35489;BME280;21602;55.670;37.578;2022-10-16T14:51:37;100461.47;;;11.13;53.75